createdAt,value
2018-06-30T00:01:09.717Z,18.15
2018-06-30T00:03:42.445Z,18.11
2018-06-30T00:06:09.444Z,18.09
2018-06-30T00:08:36.457Z,18.06
2018-06-30T00:11:03.453Z,18.03
2018-06-30T00:13:30.448Z,17.98
2018-06-30T00:15:57.453Z,17.95
2018-06-30T00:18:24.440Z,17.92
2018-06-30T00:20:51.437Z,17.88
2018-06-30T00:23:18.452Z,17.83
2018-06-30T00:25:45.581Z,17.80
2018-06-30T00:28:12.566Z,17.78
2018-06-30T00:30:39.562Z,17.74
2018-06-30T00:33:06.591Z,17.68
2018-06-30T00:35:33.617Z,17.63
2018-06-30T00:38:00.601Z,17.58
2018-06-30T00:40:27.582Z,17.52
2018-06-30T00:42:54.581Z,17.49
2018-06-30T00:45:21.581Z,17.48
2018-06-30T00:47:48.908Z,17.43
2018-06-30T00:50:15.929Z,17.42
2018-06-30T00:52:42.945Z,17.37
2018-06-30T00:55:09.955Z,17.33
2018-06-30T00:57:36.953Z,17.29
2018-06-30T01:00:04.062Z,17.24
2018-06-30T01:02:31.171Z,17.23
2018-06-30T01:04:58.156Z,17.21
2018-06-30T01:07:25.185Z,17.19
2018-06-30T01:09:52.180Z,17.16
2018-06-30T01:12:19.173Z,17.14
2018-06-30T01:14:46.166Z,17.14
2018-06-30T01:17:13.173Z,17.11
2018-06-30T01:19:40.162Z,17.08
2018-06-30T01:22:07.185Z,17.07
2018-06-30T01:24:34.165Z,17.05
2018-06-30T01:27:01.153Z,17.03
2018-06-30T01:29:28.157Z,17.02
2018-06-30T01:31:55.417Z,16.99
2018-06-30T01:34:22.419Z,16.95
2018-06-30T01:36:49.591Z,16.93
2018-06-30T01:39:16.593Z,16.91
2018-06-30T01:41:43.569Z,16.89
2018-06-30T01:44:10.557Z,16.87
2018-06-30T01:46:37.549Z,16.84
2018-06-30T01:49:04.658Z,16.81
2018-06-30T01:51:31.641Z,16.79
2018-06-30T01:53:58.678Z,16.78
2018-06-30T01:56:25.709Z,16.74
2018-06-30T01:58:52.741Z,16.73
2018-06-30T02:01:19.713Z,16.69
2018-06-30T02:03:46.689Z,16.66
2018-06-30T02:06:13.662Z,16.63
2018-06-30T02:08:40.641Z,16.60
2018-06-30T02:11:07.639Z,16.57
2018-06-30T02:13:34.636Z,16.55
2018-06-30T02:16:01.636Z,16.51
2018-06-30T02:18:28.625Z,16.49
2018-06-30T02:20:55.634Z,16.46
2018-06-30T02:23:22.636Z,16.44
2018-06-30T02:25:49.666Z,16.41
2018-06-30T02:28:16.682Z,16.38
2018-06-30T02:30:43.668Z,16.36
2018-06-30T02:33:10.725Z,16.34
2018-06-30T02:35:37.706Z,16.33
2018-06-30T02:38:04.710Z,16.30
2018-06-30T02:40:31.707Z,16.26
2018-06-30T02:42:58.893Z,16.24
2018-06-30T02:45:25.866Z,16.24
2018-06-30T02:47:52.887Z,16.23
2018-06-30T02:50:20.006Z,16.20
2018-06-30T02:52:46.989Z,16.19
2018-06-30T02:55:14.012Z,16.15
2018-06-30T02:57:41.009Z,16.13
2018-06-30T03:00:08.038Z,16.09
2018-06-30T03:02:35.027Z,16.07
2018-06-30T03:05:02.138Z,16.06
2018-06-30T03:07:29.124Z,16.06
2018-06-30T03:09:56.126Z,16.03
2018-06-30T03:12:23.089Z,16.02
2018-06-30T03:14:50.214Z,15.98
2018-06-30T03:17:17.217Z,15.97
2018-06-30T03:19:44.229Z,15.96
2018-06-30T03:22:11.221Z,15.96
2018-06-30T03:24:38.489Z,15.95
2018-06-30T03:27:05.581Z,15.96
2018-06-30T03:29:32.619Z,15.98
2018-06-30T03:31:59.678Z,15.96
2018-06-30T03:34:26.678Z,15.95
2018-06-30T03:36:53.785Z,15.93
2018-06-30T03:39:20.825Z,15.93
2018-06-30T03:41:47.793Z,15.93
2018-06-30T03:44:14.857Z,15.93
2018-06-30T03:46:41.829Z,15.93
2018-06-30T03:49:08.941Z,15.94
2018-06-30T03:51:36.030Z,15.94
2018-06-30T03:54:03.037Z,15.94
2018-06-30T03:56:30.000Z,15.93
2018-06-30T03:58:57.009Z,15.93
2018-06-30T04:01:23.982Z,15.92
2018-06-30T04:03:51.141Z,15.93
2018-06-30T04:06:18.133Z,15.96
2018-06-30T04:08:45.229Z,15.97
2018-06-30T04:11:12.208Z,15.99
2018-06-30T04:13:39.210Z,16.04
2018-06-30T04:16:06.242Z,16.05
2018-06-30T04:18:33.233Z,16.07
2018-06-30T04:21:00.229Z,16.08
2018-06-30T04:23:27.237Z,16.06
2018-06-30T04:25:54.253Z,16.07
2018-06-30T04:28:21.267Z,16.09
2018-06-30T04:30:48.261Z,16.13
2018-06-30T04:33:15.257Z,16.14
2018-06-30T04:35:42.244Z,16.13
2018-06-30T04:38:09.236Z,16.17
2018-06-30T04:40:36.249Z,16.39
2018-06-30T04:43:03.221Z,16.77
2018-06-30T04:45:30.235Z,16.99
2018-06-30T04:47:57.277Z,17.02
2018-06-30T04:50:24.257Z,16.94
2018-06-30T04:52:51.278Z,16.85
2018-06-30T04:55:18.325Z,16.77
2018-06-30T04:57:45.309Z,16.76
2018-06-30T05:00:12.354Z,16.73
2018-06-30T05:02:39.341Z,16.71
2018-06-30T05:05:06.406Z,16.71
2018-06-30T05:07:33.396Z,16.73
2018-06-30T05:10:00.393Z,16.76
2018-06-30T05:12:27.421Z,16.78
2018-06-30T05:14:54.497Z,16.81
2018-06-30T05:17:21.485Z,16.84
2018-06-30T05:19:48.481Z,16.87
2018-06-30T05:22:15.472Z,16.89
2018-06-30T05:24:42.485Z,16.91
2018-06-30T05:27:09.462Z,16.95
2018-06-30T05:29:36.471Z,16.99
2018-06-30T05:32:03.665Z,17.01
2018-06-30T05:34:30.666Z,17.04
2018-06-30T05:36:57.930Z,17.08
2018-06-30T05:39:24.954Z,17.11
2018-06-30T05:41:51.962Z,17.14
2018-06-30T05:44:18.976Z,17.16
2018-06-30T05:46:45.997Z,17.21
2018-06-30T05:49:13.021Z,17.26
2018-06-30T05:51:40.050Z,17.28
2018-06-30T05:54:07.058Z,17.30
2018-06-30T05:56:34.085Z,17.32
2018-06-30T05:59:01.063Z,17.34
2018-06-30T06:01:28.085Z,17.38
2018-06-30T06:03:55.134Z,17.43
2018-06-30T06:06:22.149Z,17.47
2018-06-30T06:08:49.108Z,17.54
2018-06-30T06:11:16.171Z,17.58
2018-06-30T06:13:43.130Z,17.65
2018-06-30T06:16:10.169Z,17.73
2018-06-30T06:18:37.129Z,17.80
2018-06-30T06:21:04.239Z,17.87
2018-06-30T06:23:31.238Z,17.92
2018-06-30T06:25:58.282Z,17.98
2018-06-30T06:28:25.287Z,18.03
2018-06-30T06:30:52.276Z,18.09
2018-06-30T06:33:19.240Z,18.16
2018-06-30T06:35:46.248Z,18.22
2018-06-30T06:38:13.230Z,18.29
2018-06-30T06:40:40.293Z,18.36
2018-06-30T06:43:07.273Z,18.39
2018-06-30T06:45:34.305Z,18.45
2018-06-30T06:48:01.287Z,18.54
2018-06-30T06:50:28.303Z,18.61
2018-06-30T06:52:55.312Z,18.68
2018-06-30T06:55:22.293Z,18.75
2018-06-30T06:57:49.477Z,18.80
2018-06-30T07:00:16.473Z,18.83
2018-06-30T07:02:43.683Z,18.90
2018-06-30T07:05:10.690Z,18.97
2018-06-30T07:07:37.734Z,19.05
2018-06-30T07:10:04.885Z,19.12
2018-06-30T07:12:31.909Z,19.18
2018-06-30T07:14:58.917Z,19.25
2018-06-30T07:17:25.953Z,19.27
2018-06-30T07:19:52.933Z,19.32
2018-06-30T07:22:19.977Z,19.38
2018-06-30T07:24:46.960Z,19.45
2018-06-30T07:27:13.993Z,19.49
2018-06-30T07:29:40.981Z,19.53
2018-06-30T07:32:08.038Z,19.60
2018-06-30T07:34:35.021Z,19.66
2018-06-30T07:37:02.033Z,19.75
2018-06-30T07:39:29.049Z,19.82
2018-06-30T07:41:56.081Z,19.90
2018-06-30T07:44:23.073Z,19.93
2018-06-30T07:46:50.155Z,19.93
2018-06-30T07:49:17.147Z,19.91
2018-06-30T07:51:44.171Z,19.97
2018-06-30T07:54:11.142Z,20.04
2018-06-30T07:56:38.176Z,20.14
2018-06-30T07:59:05.166Z,20.25
2018-06-30T08:01:32.170Z,20.32
2018-06-30T08:03:59.235Z,20.39
2018-06-30T08:06:26.229Z,20.44
2018-06-30T08:08:53.230Z,20.50
2018-06-30T08:11:20.244Z,20.59
2018-06-30T08:13:47.241Z,20.64
2018-06-30T08:16:14.418Z,20.70
2018-06-30T08:18:41.445Z,20.78
2018-06-30T08:21:08.618Z,20.82
2018-06-30T08:23:35.705Z,20.86
2018-06-30T08:26:02.729Z,20.91
2018-06-30T08:28:29.734Z,20.97
2018-06-30T08:30:56.709Z,21.05
2018-06-30T08:33:23.806Z,21.13
2018-06-30T08:35:50.785Z,21.18
2018-06-30T08:38:17.764Z,21.17
2018-06-30T08:40:44.732Z,21.19
2018-06-30T08:43:11.769Z,21.22
2018-06-30T08:45:38.796Z,21.29
2018-06-30T08:48:06.015Z,21.35
2018-06-30T08:50:33.021Z,21.41
2018-06-30T08:53:00.034Z,21.46
2018-06-30T08:55:27.111Z,21.53
2018-06-30T08:57:54.009Z,21.48
2018-06-30T09:00:20.985Z,21.50
2018-06-30T09:02:47.981Z,21.54
2018-06-30T09:05:14.941Z,21.59
2018-06-30T09:07:41.953Z,21.62
2018-06-30T09:10:08.922Z,21.69
2018-06-30T09:12:35.927Z,21.76
2018-06-30T09:15:03.345Z,21.85
2018-06-30T09:17:30.382Z,21.86
2018-06-30T09:19:57.485Z,21.90
2018-06-30T09:22:24.885Z,21.93
2018-06-30T09:24:52.425Z,21.89
2018-06-30T09:27:19.533Z,21.88
2018-06-30T09:29:46.548Z,21.95
2018-06-30T09:32:13.545Z,22.01
2018-06-30T09:34:40.563Z,22.11
2018-06-30T09:37:07.590Z,22.18
2018-06-30T09:39:34.554Z,22.27
2018-06-30T09:42:01.585Z,22.32
2018-06-30T09:44:28.707Z,22.43
2018-06-30T09:46:55.769Z,22.40
2018-06-30T09:49:22.781Z,22.48
2018-06-30T09:51:49.759Z,22.55
2018-06-30T09:54:16.783Z,22.62
2018-06-30T09:56:43.995Z,22.71
2018-06-30T09:59:11.421Z,22.72
2018-06-30T10:01:38.381Z,22.79
2018-06-30T10:04:05.517Z,22.90
2018-06-30T10:06:32.542Z,22.86
2018-06-30T10:08:59.547Z,22.91
2018-06-30T10:11:26.528Z,22.99
2018-06-30T10:13:53.561Z,23.05
2018-06-30T10:16:20.541Z,23.03
2018-06-30T10:18:47.562Z,23.14
2018-06-30T10:21:14.607Z,23.15
2018-06-30T10:23:41.573Z,23.09
2018-06-30T10:26:08.545Z,23.09
2018-06-30T10:28:35.536Z,23.11
2018-06-30T10:31:02.541Z,23.23
2018-06-30T10:33:29.581Z,23.34
2018-06-30T10:35:56.546Z,23.43
2018-06-30T10:38:23.561Z,23.46
2018-06-30T10:40:50.541Z,23.42
2018-06-30T10:43:17.691Z,23.45
2018-06-30T10:45:44.661Z,23.42
2018-06-30T10:48:11.653Z,23.45
2018-06-30T10:50:38.610Z,23.53
2018-06-30T10:53:05.645Z,23.64
2018-06-30T10:55:32.834Z,23.82
2018-06-30T10:57:59.757Z,23.97
2018-06-30T11:00:26.867Z,24.11
2018-06-30T11:02:53.832Z,24.30
2018-06-30T11:05:20.856Z,24.43
2018-06-30T11:07:47.785Z,24.38
2018-06-30T11:10:14.769Z,24.36
2018-06-30T11:12:41.774Z,24.35
2018-06-30T11:15:08.789Z,24.23
2018-06-30T11:17:35.990Z,24.20
2018-06-30T11:20:03.365Z,24.38
2018-06-30T11:22:30.346Z,24.32
2018-06-30T11:24:57.305Z,24.36
2018-06-30T11:27:24.276Z,24.50
2018-06-30T11:29:51.269Z,24.66
2018-06-30T11:32:18.347Z,24.73
2018-06-30T11:34:45.361Z,24.81
2018-06-30T11:37:12.342Z,24.75
2018-06-30T11:39:39.373Z,24.78
2018-06-30T11:42:06.381Z,24.72
2018-06-30T11:44:33.566Z,24.85
2018-06-30T11:47:00.537Z,24.89
2018-06-30T11:49:27.580Z,25.04
2018-06-30T11:51:54.573Z,25.25
2018-06-30T11:54:21.741Z,25.33
2018-06-30T11:56:48.829Z,25.26
2018-06-30T11:59:15.835Z,25.44
2018-06-30T12:01:43.057Z,25.78
2018-06-30T12:04:10.156Z,26.04
2018-06-30T12:06:37.132Z,26.41
2018-06-30T12:09:06.966Z,26.54
2018-06-30T12:11:33.925Z,26.64
2018-06-30T12:14:00.965Z,26.55
2018-06-30T12:16:27.954Z,26.23
2018-06-30T12:18:54.946Z,26.12
2018-06-30T12:21:21.949Z,25.96
2018-06-30T12:23:49.066Z,26.00
2018-06-30T12:26:16.073Z,26.01
2018-06-30T12:28:43.082Z,26.01
2018-06-30T12:31:10.114Z,26.14
2018-06-30T12:33:37.105Z,26.44
2018-06-30T12:36:04.190Z,26.35
2018-06-30T12:38:31.152Z,26.27
2018-06-30T12:40:58.245Z,26.23
2018-06-30T12:43:25.245Z,26.42
2018-06-30T12:45:52.221Z,26.60
2018-06-30T12:48:19.358Z,26.48
2018-06-30T12:50:46.367Z,26.09
2018-06-30T12:53:13.325Z,26.11
2018-06-30T12:55:40.340Z,26.30
2018-06-30T12:58:07.529Z,26.09
2018-06-30T13:00:34.513Z,25.90
2018-06-30T13:03:01.493Z,25.72
2018-06-30T13:05:28.673Z,25.79
2018-06-30T13:07:55.712Z,25.90
2018-06-30T13:10:22.670Z,25.93
2018-06-30T13:12:49.669Z,26.02
2018-06-30T13:15:16.654Z,26.02
2018-06-30T13:17:43.991Z,26.09
2018-06-30T13:20:11.021Z,26.34
2018-06-30T13:22:38.185Z,26.46
2018-06-30T13:25:05.237Z,26.29
2018-06-30T13:27:32.249Z,26.46
2018-06-30T13:29:59.309Z,26.70
2018-06-30T13:32:26.290Z,26.56
2018-06-30T13:34:53.269Z,26.55
2018-06-30T13:37:20.348Z,26.34
2018-06-30T13:39:47.358Z,26.32
2018-06-30T13:42:14.421Z,25.96
2018-06-30T13:44:41.438Z,25.88
2018-06-30T13:47:08.517Z,25.92
2018-06-30T13:49:35.545Z,26.13
2018-06-30T13:52:02.562Z,26.28
2018-06-30T13:54:29.561Z,26.45
2018-06-30T13:56:56.551Z,26.60
2018-06-30T13:59:23.590Z,26.57
2018-06-30T14:01:50.645Z,26.57
2018-06-30T14:04:17.609Z,26.61
2018-06-30T14:06:44.617Z,26.62
2018-06-30T14:09:12.108Z,26.26
2018-06-30T14:11:39.215Z,26.20
2018-06-30T14:14:06.313Z,26.37
2018-06-30T14:16:33.389Z,26.42
2018-06-30T14:19:00.370Z,26.21
2018-06-30T14:21:27.388Z,25.95
2018-06-30T14:23:54.399Z,25.59
2018-06-30T14:26:21.477Z,25.32
2018-06-30T14:28:48.490Z,25.10
2018-06-30T14:31:15.485Z,25.07
2018-06-30T14:33:43.301Z,25.28
2018-06-30T14:36:10.328Z,25.41
2018-06-30T14:38:37.297Z,25.57
2018-06-30T14:41:04.333Z,25.70
2018-06-30T14:43:31.313Z,25.84
2018-06-30T14:45:58.334Z,25.86
2018-06-30T14:48:25.356Z,25.83
2018-06-30T14:50:52.389Z,25.69
2018-06-30T14:53:19.369Z,25.73
2018-06-30T14:55:46.364Z,25.90
2018-06-30T14:58:13.491Z,25.92
2018-06-30T15:00:40.506Z,25.92
2018-06-30T15:03:07.545Z,25.99
2018-06-30T15:05:34.586Z,25.88
2018-06-30T15:08:01.562Z,25.64
2018-06-30T15:10:28.577Z,25.44
2018-06-30T15:12:55.616Z,25.16
2018-06-30T15:15:22.601Z,24.95
2018-06-30T15:17:49.617Z,24.84
2018-06-30T15:20:16.606Z,24.74
2018-06-30T15:22:43.642Z,24.78
2018-06-30T15:25:10.633Z,24.91
2018-06-30T15:27:37.625Z,25.09
2018-06-30T15:30:04.651Z,25.19
2018-06-30T15:32:31.841Z,25.20
2018-06-30T15:34:58.808Z,25.08
2018-06-30T15:37:25.813Z,24.90
2018-06-30T15:39:52.786Z,24.86
2018-06-30T15:42:19.777Z,24.86
2018-06-30T15:44:46.761Z,24.85
2018-06-30T15:47:13.765Z,24.76
2018-06-30T15:49:40.757Z,24.73
2018-06-30T15:52:07.733Z,24.74
2018-06-30T15:54:34.712Z,24.77
2018-06-30T15:57:01.733Z,24.75
2018-06-30T15:59:28.757Z,24.76
2018-06-30T16:01:55.817Z,24.86
2018-06-30T16:04:22.789Z,25.00
2018-06-30T16:06:49.809Z,25.06
2018-06-30T16:09:16.804Z,25.00
2018-06-30T16:11:43.817Z,24.92
2018-06-30T16:14:10.806Z,24.74
2018-06-30T16:16:38.525Z,24.56
2018-06-30T16:19:05.496Z,24.46
2018-06-30T16:21:32.521Z,24.42
2018-06-30T16:23:59.545Z,24.40
2018-06-30T16:26:26.578Z,24.38
2018-06-30T16:28:53.638Z,24.31
2018-06-30T16:31:20.593Z,24.37
2018-06-30T16:33:48.037Z,24.42
2018-06-30T16:36:15.009Z,24.44
2018-06-30T16:38:42.006Z,24.46
2018-06-30T16:41:08.978Z,24.44
2018-06-30T16:43:36.135Z,24.44
2018-06-30T16:46:03.213Z,24.38
2018-06-30T16:48:30.270Z,24.28
2018-06-30T16:50:57.260Z,24.16
2018-06-30T16:53:24.318Z,24.01
2018-06-30T16:55:51.322Z,23.98
2018-06-30T16:58:18.353Z,24.02
2018-06-30T17:00:45.376Z,24.06
2018-06-30T17:03:12.386Z,24.14
2018-06-30T17:05:39.373Z,24.18
2018-06-30T17:08:06.509Z,24.24
2018-06-30T17:10:33.542Z,24.26
2018-06-30T17:13:00.536Z,24.30
2018-06-30T17:15:27.630Z,24.37
2018-06-30T17:17:54.621Z,24.38
2018-06-30T17:20:21.625Z,24.41
2018-06-30T17:22:48.673Z,24.46
2018-06-30T17:25:15.681Z,24.52
2018-06-30T17:27:42.680Z,24.47
2018-06-30T17:30:09.649Z,24.45
2018-06-30T17:32:36.649Z,24.45
2018-06-30T17:35:03.677Z,24.48
2018-06-30T17:37:30.701Z,24.49
2018-06-30T17:39:57.685Z,24.53
2018-06-30T17:42:24.672Z,24.60
2018-06-30T17:44:51.681Z,24.68
2018-06-30T17:47:18.689Z,24.72
2018-06-30T17:49:46.663Z,24.78
2018-06-30T17:52:13.768Z,24.78
2018-06-30T17:54:40.750Z,24.87
2018-06-30T17:57:07.825Z,25.00
2018-06-30T17:59:34.801Z,25.12
2018-06-30T18:02:01.849Z,25.31
2018-06-30T18:04:28.859Z,25.28
2018-06-30T18:06:55.888Z,25.39
2018-06-30T18:09:22.856Z,25.39
2018-06-30T18:11:50.001Z,25.38
2018-06-30T18:14:17.070Z,25.48
2018-06-30T18:16:44.029Z,25.50
2018-06-30T18:19:11.016Z,25.51
2018-06-30T18:21:38.105Z,25.64
2018-06-30T18:24:05.138Z,25.72
2018-06-30T18:26:32.152Z,25.81
2018-06-30T18:28:59.163Z,25.85
2018-06-30T18:31:26.133Z,25.65
2018-06-30T18:33:53.157Z,25.57
2018-06-30T18:36:20.178Z,25.28
2018-06-30T18:38:47.293Z,25.09
2018-06-30T18:41:14.510Z,24.80
2018-06-30T18:43:41.573Z,24.42
2018-06-30T18:46:08.542Z,24.25
2018-06-30T18:48:35.690Z,24.05
2018-06-30T18:51:02.704Z,23.88
2018-06-30T18:53:29.706Z,23.76
2018-06-30T18:55:56.717Z,23.54
2018-06-30T18:58:23.801Z,23.39
2018-06-30T19:00:50.725Z,23.28
2018-06-30T19:03:17.779Z,23.23
2018-06-30T19:05:45.382Z,23.12
2018-06-30T19:08:12.486Z,22.99
2018-06-30T19:10:39.494Z,22.88
2018-06-30T19:13:06.462Z,22.80
2018-06-30T19:15:33.526Z,22.72
2018-06-30T19:18:00.521Z,22.64
2018-06-30T19:20:27.505Z,22.57
2018-06-30T19:22:54.497Z,22.52
2018-06-30T19:25:21.518Z,22.44
2018-06-30T19:27:48.529Z,22.31
2018-06-30T19:30:15.793Z,22.21
2018-06-30T19:32:43.044Z,22.10
2018-06-30T19:35:10.025Z,21.99
2018-06-30T19:37:37.045Z,21.93
2018-06-30T19:40:04.349Z,21.85
2018-06-30T19:42:31.402Z,21.78
2018-06-30T19:44:58.393Z,21.68
2018-06-30T19:47:25.373Z,21.64
2018-06-30T19:49:52.465Z,21.59
2018-06-30T19:52:19.449Z,21.50
2018-06-30T19:54:46.443Z,21.42
2018-06-30T19:57:13.438Z,21.32
2018-06-30T19:59:40.450Z,21.28
2018-06-30T20:02:07.444Z,21.21
2018-06-30T20:04:34.432Z,21.14
2018-06-30T20:07:01.406Z,21.03
2018-06-30T20:09:28.481Z,20.97
2018-06-30T20:11:55.483Z,20.90
2018-06-30T20:14:22.489Z,20.84
2018-06-30T20:16:49.513Z,20.80
2018-06-30T20:19:16.520Z,20.76
2018-06-30T20:21:43.689Z,20.70
2018-06-30T20:24:11.285Z,20.65
2018-06-30T20:26:38.318Z,20.60
2018-06-30T20:29:05.389Z,20.54
2018-06-30T20:31:32.361Z,20.49
2018-06-30T20:33:59.346Z,20.47
2018-06-30T20:36:26.358Z,20.42
2018-06-30T20:38:53.341Z,20.38
2018-06-30T20:41:20.322Z,20.33
2018-06-30T20:43:47.305Z,20.28
2018-06-30T20:46:14.349Z,20.23
2018-06-30T20:48:41.595Z,20.17
2018-06-30T20:51:08.625Z,20.13
2018-06-30T20:53:35.645Z,20.06
2018-06-30T20:56:02.645Z,20.02
2018-06-30T20:58:29.680Z,20.00
2018-06-30T21:00:56.696Z,19.97
2018-06-30T21:03:23.701Z,19.92
2018-06-30T21:05:50.718Z,19.88
2018-06-30T21:08:17.748Z,19.82
2018-06-30T21:10:44.740Z,19.78
2018-06-30T21:13:11.814Z,19.73
2018-06-30T21:15:38.797Z,19.70
2018-06-30T21:18:06.198Z,19.66
2018-06-30T21:20:33.197Z,19.63
2018-06-30T21:23:00.386Z,19.57
2018-06-30T21:25:27.453Z,19.53
2018-06-30T21:27:54.499Z,19.46
2018-06-30T21:30:21.493Z,19.44
2018-06-30T21:32:48.573Z,19.40
2018-06-30T21:35:15.573Z,19.37
2018-06-30T21:37:42.590Z,19.32
2018-06-30T21:40:09.581Z,19.28
2018-06-30T21:42:36.581Z,19.26
2018-06-30T21:45:03.936Z,19.20
2018-06-30T21:47:30.911Z,19.17
2018-06-30T21:49:57.904Z,19.13
2018-06-30T21:52:24.925Z,19.10
2018-06-30T21:54:51.957Z,19.05
2018-06-30T21:57:19.033Z,19.01
2018-06-30T21:59:46.041Z,18.98
2018-06-30T22:02:13.025Z,18.91
2018-06-30T22:04:40.092Z,18.85
2018-06-30T22:07:07.078Z,18.82
2018-06-30T22:09:34.125Z,18.79
2018-06-30T22:12:01.105Z,18.76
2018-06-30T22:14:28.117Z,18.70
2018-06-30T22:16:55.569Z,18.65
2018-06-30T22:19:22.572Z,18.62
2018-06-30T22:21:49.569Z,18.57
2018-06-30T22:24:16.588Z,18.51
2018-06-30T22:26:43.717Z,18.46
2018-06-30T22:29:10.890Z,18.44
2018-06-30T22:31:37.864Z,18.41
2018-06-30T22:34:05.589Z,18.38
2018-06-30T22:36:32.589Z,18.35
2018-06-30T22:38:59.584Z,18.32
2018-06-30T22:41:26.568Z,18.29
2018-06-30T22:43:53.609Z,18.26
2018-06-30T22:46:20.609Z,18.20
2018-06-30T22:48:47.577Z,18.19
2018-06-30T22:51:14.581Z,18.16
2018-06-30T22:53:41.577Z,18.13
2018-06-30T22:56:08.582Z,18.08
2018-06-30T22:58:35.577Z,18.04
2018-06-30T23:01:02.593Z,18.03
2018-06-30T23:03:29.565Z,17.99
2018-06-30T23:05:56.587Z,17.96
2018-06-30T23:08:23.581Z,17.94
2018-06-30T23:10:50.638Z,17.92
2018-06-30T23:13:17.645Z,17.89
2018-06-30T23:15:44.653Z,17.85
2018-06-30T23:18:11.641Z,17.81
2018-06-30T23:20:38.737Z,17.77
2018-06-30T23:23:06.978Z,17.74
2018-06-30T23:25:34.474Z,17.69
2018-06-30T23:28:01.717Z,17.63
2018-06-30T23:30:29.335Z,17.57
2018-06-30T23:32:56.304Z,17.53
2018-06-30T23:35:25.174Z,17.51
2018-06-30T23:37:53.052Z,17.43
2018-06-30T23:40:20.072Z,17.42
2018-06-30T23:42:47.108Z,17.36
2018-06-30T23:45:14.130Z,17.32
2018-06-30T23:47:41.347Z,17.26
2018-06-30T23:50:08.469Z,17.23
2018-06-30T23:52:36.021Z,17.19
2018-06-30T23:55:03.601Z,17.15
2018-06-30T23:57:30.584Z,17.12
2018-06-30T23:59:57.581Z,17.09
